sensor_id;sensor_type;location;lat;lon;timestamp;P1;durP1;ratioP1;P2;durP2;ratioP2
46230;SDS011;31949;51.404;-0.038;2022-08-01T00:00:21;2.63;;;2.10;;
46230;SDS011;31949;51.404;-0.038;2022-08-01T00:02:48;3.28;;;2.17;;
46230;SDS011;31949;51.404;-0.038;2022-08-01T00:05:15;3.15;;;2.03;;
46230;SDS011;31949;51.404;-0.038;2022-08-01T00:07:42;2.35;;;1.98;;
46230;SDS011;31949;51.404;-0.038;2022-08-01T00:10:11;2.72;;;2.17;;
46230;SDS011;31949;51.404;-0.038;2022-08-01T00:12:41;3.47;;;2.03;;
46230;SDS011;31949;51.404;-0.038;2022-08-01T00:15:10;1.67;;;1.58;;
46230;SDS011;31949;51.404;-0.038;2022-08-01T00:17:39;2.55;;;1.92;;
46230;SDS011;31949;51.404;-0.038;2022-08-01T00:20:08;1.65;;;1.55;;
46230;SDS011;31949;51.404;-0.038;2022-08-01T00:22:36;1.80;;;1.70;;
46230;SDS011;31949;51.404;-0.038;2022-08-01T00:25:04;2.05;;;1.85;;
46230;SDS011;31949;51.404;-0.038;2022-08-01T00:27:32;2.42;;;1.45;;
46230;SDS011;31949;51.404;-0.038;2022-08-01T00:30:03;1.50;;;1.40;;
46230;SDS011;31949;51.404;-0.038;2022-08-01T00:32:40;2.10;;;1.65;;
46230;SDS011;31949;51.404;-0.038;2022-08-01T00:35:10;2.47;;;1.63;;
46230;SDS011;31949;51.404;-0.038;2022-08-01T00:37:38;1.73;;;1.63;;
46230;SDS011;31949;51.404;-0.038;2022-08-01T00:40:05;1.60;;;1.50;;
46230;SDS011;31949;51.404;-0.038;2022-08-01T00:42:33;2.03;;;1.58;;
46230;SDS011;31949;51.404;-0.038;2022-08-01T00:47:33;2.47;;;1.50;;
46230;SDS011;31949;51.404;-0.038;2022-08-01T00:50:00;2.00;;;1.45;;
46230;SDS011;31949;51.404;-0.038;2022-08-01T00:52:29;2.00;;;1.80;;
46230;SDS011;31949;51.404;-0.038;2022-08-01T00:54:57;1.70;;;1.60;;
46230;SDS011;31949;51.404;-0.038;2022-08-01T00:57:24;1.30;;;1.20;;
46230;SDS011;31949;51.404;-0.038;2022-08-01T01:00:12;0.90;;;0.90;;
46230;SDS011;31949;51.404;-0.038;2022-08-01T01:02:39;2.05;;;1.45;;
46230;SDS011;31949;51.404;-0.038;2022-08-01T01:05:07;1.50;;;1.40;;
46230;SDS011;31949;51.404;-0.038;2022-08-01T01:07:37;1.35;;;1.10;;
46230;SDS011;31949;51.404;-0.038;2022-08-01T01:10:21;1.25;;;1.15;;
46230;SDS011;31949;51.404;-0.038;2022-08-01T01:13:09;1.60;;;1.27;;
46230;SDS011;31949;51.404;-0.038;2022-08-01T01:15:41;1.20;;;1.08;;
46230;SDS011;31949;51.404;-0.038;2022-08-01T01:18:17;2.53;;;1.38;;
46230;SDS011;31949;51.404;-0.038;2022-08-01T01:20:51;1.92;;;1.42;;
46230;SDS011;31949;51.404;-0.038;2022-08-01T01:35:00;2.25;;;1.65;;
46230;SDS011;31949;51.404;-0.038;2022-08-01T01:37:31;2.05;;;1.55;;
46230;SDS011;31949;51.404;-0.038;2022-08-01T01:40:00;1.35;;;1.15;;
46230;SDS011;31949;51.404;-0.038;2022-08-01T01:42:29;1.95;;;1.67;;
46230;SDS011;31949;51.404;-0.038;2022-08-01T01:44:58;1.73;;;1.42;;
46230;SDS011;31949;51.404;-0.038;2022-08-01T01:47:29;1.70;;;1.30;;
46230;SDS011;31949;51.404;-0.038;2022-08-01T01:49:59;1.70;;;1.40;;
46230;SDS011;31949;51.404;-0.038;2022-08-01T01:52:28;1.45;;;1.35;;
46230;SDS011;31949;51.404;-0.038;2022-08-01T01:54:58;2.17;;;1.40;;
46230;SDS011;31949;51.404;-0.038;2022-08-01T01:57:27;2.50;;;1.38;;
46230;SDS011;31949;51.404;-0.038;2022-08-01T01:59:57;2.10;;;1.13;;
46230;SDS011;31949;51.404;-0.038;2022-08-01T02:02:25;1.40;;;1.25;;
46230;SDS011;31949;51.404;-0.038;2022-08-01T02:04:54;1.40;;;1.30;;
46230;SDS011;31949;51.404;-0.038;2022-08-01T02:07:24;1.60;;;1.40;;
46230;SDS011;31949;51.404;-0.038;2022-08-01T02:09:52;1.60;;;1.20;;
46230;SDS011;31949;51.404;-0.038;2022-08-01T02:12:21;1.52;;;1.42;;
46230;SDS011;31949;51.404;-0.038;2022-08-01T02:14:51;1.92;;;1.42;;
46230;SDS011;31949;51.404;-0.038;2022-08-01T02:17:21;1.38;;;1.10;;
46230;SDS011;31949;51.404;-0.038;2022-08-01T02:19:51;1.25;;;1.15;;
46230;SDS011;31949;51.404;-0.038;2022-08-01T02:22:34;2.72;;;1.83;;
46230;SDS011;31949;51.404;-0.038;2022-08-01T02:25:11;3.47;;;1.92;;
46230;SDS011;31949;51.404;-0.038;2022-08-01T02:27:42;3.05;;;1.85;;
46230;SDS011;31949;51.404;-0.038;2022-08-01T02:30:14;2.75;;;1.30;;
46230;SDS011;31949;51.404;-0.038;2022-08-01T02:35:47;2.40;;;1.58;;
46230;SDS011;31949;51.404;-0.038;2022-08-01T02:38:28;2.40;;;1.35;;
46230;SDS011;31949;51.404;-0.038;2022-08-01T02:40:59;3.15;;;2.03;;
46230;SDS011;31949;51.404;-0.038;2022-08-01T02:43:45;2.50;;;1.73;;
46230;SDS011;31949;51.404;-0.038;2022-08-01T02:46:31;2.55;;;1.20;;
46230;SDS011;31949;51.404;-0.038;2022-08-01T02:49:03;2.63;;;1.50;;
46230;SDS011;31949;51.404;-0.038;2022-08-01T02:51:33;1.27;;;1.10;;
46230;SDS011;31949;51.404;-0.038;2022-08-01T02:54:03;3.00;;;1.85;;
46230;SDS011;31949;51.404;-0.038;2022-08-01T02:56:33;2.17;;;1.50;;
46230;SDS011;31949;51.404;-0.038;2022-08-01T02:59:02;2.40;;;1.60;;
46230;SDS011;31949;51.404;-0.038;2022-08-01T03:01:41;4.03;;;1.45;;
46230;SDS011;31949;51.404;-0.038;2022-08-01T03:04:11;1.85;;;1.50;;
46230;SDS011;31949;51.404;-0.038;2022-08-01T03:06:39;2.38;;;2.05;;
46230;SDS011;31949;51.404;-0.038;2022-08-01T03:09:10;3.40;;;1.73;;
46230;SDS011;31949;51.404;-0.038;2022-08-01T03:11:42;3.37;;;2.00;;
46230;SDS011;31949;51.404;-0.038;2022-08-01T03:14:11;3.55;;;2.00;;
46230;SDS011;31949;51.404;-0.038;2022-08-01T03:16:41;1.80;;;1.13;;
46230;SDS011;31949;51.404;-0.038;2022-08-01T03:19:11;2.88;;;1.65;;
46230;SDS011;31949;51.404;-0.038;2022-08-01T03:21:40;3.70;;;2.30;;
46230;SDS011;31949;51.404;-0.038;2022-08-01T03:24:10;2.05;;;1.80;;
46230;SDS011;31949;51.404;-0.038;2022-08-01T03:26:39;2.20;;;1.80;;
46230;SDS011;31949;51.404;-0.038;2022-08-01T03:29:18;4.00;;;2.42;;
46230;SDS011;31949;51.404;-0.038;2022-08-01T03:31:49;1.85;;;1.70;;
46230;SDS011;31949;51.404;-0.038;2022-08-01T03:34:16;3.67;;;1.90;;
46230;SDS011;31949;51.404;-0.038;2022-08-01T03:36:48;1.63;;;1.50;;
46230;SDS011;31949;51.404;-0.038;2022-08-01T03:39:24;1.90;;;1.35;;
46230;SDS011;31949;51.404;-0.038;2022-08-01T03:41:57;3.60;;;1.85;;
46230;SDS011;31949;51.404;-0.038;2022-08-01T03:44:28;2.13;;;1.38;;
46230;SDS011;31949;51.404;-0.038;2022-08-01T03:47:00;3.73;;;2.43;;
46230;SDS011;31949;51.404;-0.038;2022-08-01T03:49:32;3.00;;;1.65;;
46230;SDS011;31949;51.404;-0.038;2022-08-01T03:52:02;3.67;;;1.67;;
46230;SDS011;31949;51.404;-0.038;2022-08-01T03:54:35;1.80;;;1.65;;
46230;SDS011;31949;51.404;-0.038;2022-08-01T03:57:04;2.20;;;1.50;;
46230;SDS011;31949;51.404;-0.038;2022-08-01T03:59:32;1.63;;;1.00;;
46230;SDS011;31949;51.404;-0.038;2022-08-01T04:02:01;2.03;;;1.30;;
46230;SDS011;31949;51.404;-0.038;2022-08-01T04:04:30;1.88;;;1.60;;
46230;SDS011;31949;51.404;-0.038;2022-08-01T04:06:57;1.65;;;1.52;;
46230;SDS011;31949;51.404;-0.038;2022-08-01T04:09:30;1.92;;;1.20;;
46230;SDS011;31949;51.404;-0.038;2022-08-01T04:11:58;2.92;;;1.63;;
46230;SDS011;31949;51.404;-0.038;2022-08-01T04:14:35;2.95;;;1.90;;
46230;SDS011;31949;51.404;-0.038;2022-08-01T04:17:02;2.40;;;1.75;;
46230;SDS011;31949;51.404;-0.038;2022-08-01T04:19:29;1.80;;;1.50;;
46230;SDS011;31949;51.404;-0.038;2022-08-01T04:21:57;2.38;;;1.83;;
46230;SDS011;31949;51.404;-0.038;2022-08-01T04:24:24;2.50;;;1.60;;
46230;SDS011;31949;51.404;-0.038;2022-08-01T04:26:55;1.48;;;1.23;;
46230;SDS011;31949;51.404;-0.038;2022-08-01T04:29:24;1.92;;;1.58;;
46230;SDS011;31949;51.404;-0.038;2022-08-01T04:31:53;2.10;;;1.17;;
46230;SDS011;31949;51.404;-0.038;2022-08-01T04:34:23;1.63;;;1.52;;
46230;SDS011;31949;51.404;-0.038;2022-08-01T04:36:52;2.90;;;1.50;;
46230;SDS011;31949;51.404;-0.038;2022-08-01T04:39:23;5.15;;;2.00;;
46230;SDS011;31949;51.404;-0.038;2022-08-01T04:41:58;2.42;;;1.63;;
46230;SDS011;31949;51.404;-0.038;2022-08-01T04:44:26;2.28;;;1.80;;
46230;SDS011;31949;51.404;-0.038;2022-08-01T04:47:01;1.75;;;1.65;;
46230;SDS011;31949;51.404;-0.038;2022-08-01T04:49:36;2.53;;;1.25;;
46230;SDS011;31949;51.404;-0.038;2022-08-01T04:52:14;10.32;;;1.85;;
46230;SDS011;31949;51.404;-0.038;2022-08-01T04:54:50;1.90;;;1.80;;
46230;SDS011;31949;51.404;-0.038;2022-08-01T04:57:17;2.13;;;1.23;;
46230;SDS011;31949;51.404;-0.038;2022-08-01T04:59:44;1.65;;;1.42;;
46230;SDS011;31949;51.404;-0.038;2022-08-01T05:02:13;2.05;;;1.80;;
46230;SDS011;31949;51.404;-0.038;2022-08-01T05:04:42;1.85;;;1.75;;
46230;SDS011;31949;51.404;-0.038;2022-08-01T05:07:10;1.95;;;1.38;;
46230;SDS011;31949;51.404;-0.038;2022-08-01T05:09:40;2.20;;;2.00;;
46230;SDS011;31949;51.404;-0.038;2022-08-01T05:12:08;2.08;;;1.88;;
46230;SDS011;31949;51.404;-0.038;2022-08-01T05:14:37;3.42;;;2.00;;
46230;SDS011;31949;51.404;-0.038;2022-08-01T05:17:05;2.83;;;1.60;;
46230;SDS011;31949;51.404;-0.038;2022-08-01T05:19:34;3.47;;;1.77;;
46230;SDS011;31949;51.404;-0.038;2022-08-01T05:22:06;2.28;;;1.70;;
46230;SDS011;31949;51.404;-0.038;2022-08-01T05:24:36;4.93;;;1.77;;
46230;SDS011;31949;51.404;-0.038;2022-08-01T05:27:06;2.80;;;2.08;;
46230;SDS011;31949;51.404;-0.038;2022-08-01T05:29:36;2.10;;;1.88;;
46230;SDS011;31949;51.404;-0.038;2022-08-01T05:32:10;2.33;;;2.13;;
46230;SDS011;31949;51.404;-0.038;2022-08-01T05:34:37;2.38;;;2.17;;
46230;SDS011;31949;51.404;-0.038;2022-08-01T05:37:04;1.85;;;1.75;;
46230;SDS011;31949;51.404;-0.038;2022-08-01T05:39:31;3.45;;;2.22;;
46230;SDS011;31949;51.404;-0.038;2022-08-01T05:41:58;2.47;;;1.67;;
46230;SDS011;31949;51.404;-0.038;2022-08-01T05:44:26;3.15;;;2.10;;
46230;SDS011;31949;51.404;-0.038;2022-08-01T05:46:53;4.03;;;2.30;;
46230;SDS011;31949;51.404;-0.038;2022-08-01T05:49:20;1.67;;;1.58;;
46230;SDS011;31949;51.404;-0.038;2022-08-01T05:51:47;4.40;;;1.60;;
46230;SDS011;31949;51.404;-0.038;2022-08-01T05:54:15;1.67;;;1.55;;
46230;SDS011;31949;51.404;-0.038;2022-08-01T05:56:42;2.60;;;2.20;;
46230;SDS011;31949;51.404;-0.038;2022-08-01T05:59:09;2.58;;;2.38;;
46230;SDS011;31949;51.404;-0.038;2022-08-01T06:01:36;4.47;;;1.63;;
46230;SDS011;31949;51.404;-0.038;2022-08-01T06:04:03;2.25;;;1.70;;
46230;SDS011;31949;51.404;-0.038;2022-08-01T06:06:31;3.22;;;1.70;;
46230;SDS011;31949;51.404;-0.038;2022-08-01T06:08:58;4.85;;;2.10;;
46230;SDS011;31949;51.404;-0.038;2022-08-01T06:11:25;2.80;;;2.03;;
46230;SDS011;31949;51.404;-0.038;2022-08-01T06:13:52;2.20;;;2.00;;
46230;SDS011;31949;51.404;-0.038;2022-08-01T06:16:20;2.45;;;2.00;;
46230;SDS011;31949;51.404;-0.038;2022-08-01T06:18:47;2.78;;;1.98;;
46230;SDS011;31949;51.404;-0.038;2022-08-01T06:21:16;2.47;;;1.60;;
46230;SDS011;31949;51.404;-0.038;2022-08-01T06:23:43;1.70;;;1.60;;
46230;SDS011;31949;51.404;-0.038;2022-08-01T06:26:11;3.25;;;1.50;;
46230;SDS011;31949;51.404;-0.038;2022-08-01T06:28:38;3.08;;;2.35;;
46230;SDS011;31949;51.404;-0.038;2022-08-01T06:31:05;1.75;;;1.65;;
46230;SDS011;31949;51.404;-0.038;2022-08-01T06:33:32;4.57;;;1.90;;
46230;SDS011;31949;51.404;-0.038;2022-08-01T06:36:00;2.13;;;1.52;;
46230;SDS011;31949;51.404;-0.038;2022-08-01T06:38:27;3.88;;;1.98;;
46230;SDS011;31949;51.404;-0.038;2022-08-01T06:40:54;4.18;;;1.90;;
46230;SDS011;31949;51.404;-0.038;2022-08-01T06:43:21;2.42;;;1.98;;
46230;SDS011;31949;51.404;-0.038;2022-08-01T06:45:48;2.08;;;1.77;;
46230;SDS011;31949;51.404;-0.038;2022-08-01T06:48:16;1.77;;;1.67;;
46230;SDS011;31949;51.404;-0.038;2022-08-01T06:50:43;2.75;;;1.65;;
46230;SDS011;31949;51.404;-0.038;2022-08-01T06:53:10;3.88;;;1.85;;
46230;SDS011;31949;51.404;-0.038;2022-08-01T06:55:37;2.83;;;1.83;;
46230;SDS011;31949;51.404;-0.038;2022-08-01T06:58:05;3.63;;;2.20;;
46230;SDS011;31949;51.404;-0.038;2022-08-01T07:00:32;2.50;;;1.98;;
46230;SDS011;31949;51.404;-0.038;2022-08-01T07:02:59;2.30;;;1.67;;
46230;SDS011;31949;51.404;-0.038;2022-08-01T07:05:27;2.83;;;1.80;;
46230;SDS011;31949;51.404;-0.038;2022-08-01T07:07:54;3.08;;;1.67;;
46230;SDS011;31949;51.404;-0.038;2022-08-01T07:10:21;3.67;;;1.80;;
46230;SDS011;31949;51.404;-0.038;2022-08-01T07:12:48;3.20;;;1.88;;
46230;SDS011;31949;51.404;-0.038;2022-08-01T07:15:15;2.35;;;1.92;;
46230;SDS011;31949;51.404;-0.038;2022-08-01T07:17:43;2.78;;;2.10;;
46230;SDS011;31949;51.404;-0.038;2022-08-01T07:20:11;3.47;;;1.88;;
46230;SDS011;31949;51.404;-0.038;2022-08-01T07:22:42;2.88;;;1.63;;
46230;SDS011;31949;51.404;-0.038;2022-08-01T07:25:13;2.05;;;1.50;;
46230;SDS011;31949;51.404;-0.038;2022-08-01T07:27:40;3.88;;;1.95;;
46230;SDS011;31949;51.404;-0.038;2022-08-01T07:30:07;2.70;;;1.75;;
46230;SDS011;31949;51.404;-0.038;2022-08-01T07:32:35;3.83;;;2.00;;
46230;SDS011;31949;51.404;-0.038;2022-08-01T07:35:02;2.53;;;2.00;;
46230;SDS011;31949;51.404;-0.038;2022-08-01T07:37:30;2.30;;;1.50;;
46230;SDS011;31949;51.404;-0.038;2022-08-01T07:40:14;3.88;;;1.88;;
46230;SDS011;31949;51.404;-0.038;2022-08-01T07:42:43;2.28;;;2.08;;
46230;SDS011;31949;51.404;-0.038;2022-08-01T07:45:11;2.33;;;1.90;;
46230;SDS011;31949;51.404;-0.038;2022-08-01T07:47:39;3.08;;;2.03;;
46230;SDS011;31949;51.404;-0.038;2022-08-01T07:50:07;2.80;;;1.98;;
46230;SDS011;31949;51.404;-0.038;2022-08-01T07:52:34;4.00;;;1.98;;
46230;SDS011;31949;51.404;-0.038;2022-08-01T07:55:02;2.10;;;1.90;;
46230;SDS011;31949;51.404;-0.038;2022-08-01T07:57:29;2.22;;;2.03;;
46230;SDS011;31949;51.404;-0.038;2022-08-01T07:59:56;3.22;;;2.17;;
46230;SDS011;31949;51.404;-0.038;2022-08-01T08:02:24;4.03;;;2.05;;
46230;SDS011;31949;51.404;-0.038;2022-08-01T08:04:52;2.15;;;1.80;;
46230;SDS011;31949;51.404;-0.038;2022-08-01T08:07:19;2.95;;;1.58;;
46230;SDS011;31949;51.404;-0.038;2022-08-01T08:09:46;2.40;;;2.20;;
46230;SDS011;31949;51.404;-0.038;2022-08-01T08:12:16;3.47;;;2.42;;
46230;SDS011;31949;51.404;-0.038;2022-08-01T08:14:53;1.77;;;1.67;;
46230;SDS011;31949;51.404;-0.038;2022-08-01T08:17:22;2.75;;;1.83;;
46230;SDS011;31949;51.404;-0.038;2022-08-01T08:19:50;3.28;;;1.52;;
46230;SDS011;31949;51.404;-0.038;2022-08-01T08:22:17;2.75;;;1.92;;
46230;SDS011;31949;51.404;-0.038;2022-08-01T08:24:44;2.55;;;1.40;;
46230;SDS011;31949;51.404;-0.038;2022-08-01T08:27:13;3.15;;;1.35;;
46230;SDS011;31949;51.404;-0.038;2022-08-01T08:29:41;4.18;;;2.35;;
46230;SDS011;31949;51.404;-0.038;2022-08-01T08:32:08;2.53;;;1.30;;
46230;SDS011;31949;51.404;-0.038;2022-08-01T08:34:36;2.08;;;1.40;;
46230;SDS011;31949;51.404;-0.038;2022-08-01T08:37:03;2.53;;;1.40;;
46230;SDS011;31949;51.404;-0.038;2022-08-01T08:39:31;2.92;;;1.60;;
46230;SDS011;31949;51.404;-0.038;2022-08-01T08:42:08;2.35;;;1.23;;
46230;SDS011;31949;51.404;-0.038;2022-08-01T08:44:36;1.65;;;1.55;;
46230;SDS011;31949;51.404;-0.038;2022-08-01T08:47:10;2.17;;;1.30;;
46230;SDS011;31949;51.404;-0.038;2022-08-01T08:49:45;2.25;;;1.35;;
46230;SDS011;31949;51.404;-0.038;2022-08-01T08:52:15;4.72;;;1.40;;
46230;SDS011;31949;51.404;-0.038;2022-08-01T08:54:43;3.28;;;1.33;;
46230;SDS011;31949;51.404;-0.038;2022-08-01T08:57:13;2.17;;;1.23;;
46230;SDS011;31949;51.404;-0.038;2022-08-01T08:59:44;1.40;;;1.25;;
46230;SDS011;31949;51.404;-0.038;2022-08-01T09:02:11;3.08;;;1.55;;
46230;SDS011;31949;51.404;-0.038;2022-08-01T09:04:40;2.50;;;1.05;;
46230;SDS011;31949;51.404;-0.038;2022-08-01T09:07:08;2.00;;;1.73;;
46230;SDS011;31949;51.404;-0.038;2022-08-01T09:09:37;1.50;;;1.10;;
46230;SDS011;31949;51.404;-0.038;2022-08-01T09:12:07;1.63;;;1.52;;
46230;SDS011;31949;51.404;-0.038;2022-08-01T09:14:36;1.05;;;0.90;;
46230;SDS011;31949;51.404;-0.038;2022-08-01T09:17:11;1.70;;;1.15;;
46230;SDS011;31949;51.404;-0.038;2022-08-01T09:19:47;2.55;;;1.40;;
46230;SDS011;31949;51.404;-0.038;2022-08-01T09:22:16;2.58;;;1.60;;
46230;SDS011;31949;51.404;-0.038;2022-08-01T09:24:59;1.88;;;1.70;;
46230;SDS011;31949;51.404;-0.038;2022-08-01T09:27:29;2.65;;;1.23;;
46230;SDS011;31949;51.404;-0.038;2022-08-01T09:30:08;4.28;;;1.90;;
46230;SDS011;31949;51.404;-0.038;2022-08-01T09:32:52;1.83;;;1.10;;
46230;SDS011;31949;51.404;-0.038;2022-08-01T09:35:27;1.58;;;1.45;;
46230;SDS011;31949;51.404;-0.038;2022-08-01T09:40:54;3.20;;;1.30;;
46230;SDS011;31949;51.404;-0.038;2022-08-01T09:43:25;2.50;;;1.55;;
46230;SDS011;31949;51.404;-0.038;2022-08-01T09:45:53;2.92;;;1.55;;
46230;SDS011;31949;51.404;-0.038;2022-08-01T09:48:24;2.40;;;1.45;;
46230;SDS011;31949;51.404;-0.038;2022-08-01T09:50:56;1.73;;;1.10;;
46230;SDS011;31949;51.404;-0.038;2022-08-01T09:53:41;4.18;;;1.98;;
46230;SDS011;31949;51.404;-0.038;2022-08-01T09:56:18;1.67;;;1.42;;
46230;SDS011;31949;51.404;-0.038;2022-08-01T10:01:28;2.08;;;1.42;;
46230;SDS011;31949;51.404;-0.038;2022-08-01T10:06:47;3.03;;;1.15;;
46230;SDS011;31949;51.404;-0.038;2022-08-01T10:09:30;1.10;;;1.00;;
46230;SDS011;31949;51.404;-0.038;2022-08-01T10:12:06;2.28;;;1.35;;
46230;SDS011;31949;51.404;-0.038;2022-08-01T10:14:42;1.90;;;1.58;;
46230;SDS011;31949;51.404;-0.038;2022-08-01T10:17:15;1.88;;;1.17;;
46230;SDS011;31949;51.404;-0.038;2022-08-01T10:19:45;1.60;;;1.50;;
46230;SDS011;31949;51.404;-0.038;2022-08-01T10:22:17;1.48;;;1.08;;
46230;SDS011;31949;51.404;-0.038;2022-08-01T10:24:47;2.38;;;1.20;;
46230;SDS011;31949;51.404;-0.038;2022-08-01T10:27:16;3.55;;;1.40;;
46230;SDS011;31949;51.404;-0.038;2022-08-01T10:30:04;2.35;;;1.08;;
46230;SDS011;31949;51.404;-0.038;2022-08-01T10:32:49;1.10;;;0.90;;
46230;SDS011;31949;51.404;-0.038;2022-08-01T10:35:20;1.48;;;1.15;;
46230;SDS011;31949;51.404;-0.038;2022-08-01T10:38:08;2.38;;;1.10;;
46230;SDS011;31949;51.404;-0.038;2022-08-01T10:40:39;1.30;;;1.20;;
46230;SDS011;31949;51.404;-0.038;2022-08-01T10:43:09;2.10;;;1.50;;
46230;SDS011;31949;51.404;-0.038;2022-08-01T10:45:37;2.47;;;0.93;;
46230;SDS011;31949;51.404;-0.038;2022-08-01T10:48:12;1.45;;;1.02;;
46230;SDS011;31949;51.404;-0.038;2022-08-01T10:50:47;2.10;;;1.02;;
46230;SDS011;31949;51.404;-0.038;2022-08-01T10:53:19;1.65;;;1.25;;
46230;SDS011;31949;51.404;-0.038;2022-08-01T10:56:07;3.40;;;1.38;;
46230;SDS011;31949;51.404;-0.038;2022-08-01T10:58:39;3.47;;;1.38;;
46230;SDS011;31949;51.404;-0.038;2022-08-01T11:01:20;5.30;;;1.13;;
46230;SDS011;31949;51.404;-0.038;2022-08-01T11:11:58;2.60;;;1.20;;
46230;SDS011;31949;51.404;-0.038;2022-08-01T11:14:26;2.22;;;1.08;;
46230;SDS011;31949;51.404;-0.038;2022-08-01T11:17:29;1.35;;;1.05;;
46230;SDS011;31949;51.404;-0.038;2022-08-01T11:23:08;3.60;;;0.80;;
46230;SDS011;31949;51.404;-0.038;2022-08-01T11:28:24;2.28;;;0.73;;
46230;SDS011;31949;51.404;-0.038;2022-08-01T11:41:40;1.75;;;0.90;;
46230;SDS011;31949;51.404;-0.038;2022-08-01T11:44:14;2.08;;;0.80;;
46230;SDS011;31949;51.404;-0.038;2022-08-01T11:52:05;1.00;;;0.90;;
46230;SDS011;31949;51.404;-0.038;2022-08-01T11:54:41;1.83;;;0.95;;
46230;SDS011;31949;51.404;-0.038;2022-08-01T11:57:26;1.02;;;0.93;;
46230;SDS011;31949;51.404;-0.038;2022-08-01T12:00:19;2.17;;;1.15;;
46230;SDS011;31949;51.404;-0.038;2022-08-01T12:02:53;1.13;;;1.00;;
46230;SDS011;31949;51.404;-0.038;2022-08-01T12:05:30;1.20;;;1.10;;
46230;SDS011;31949;51.404;-0.038;2022-08-01T12:08:00;1.55;;;0.90;;
46230;SDS011;31949;51.404;-0.038;2022-08-01T12:10:30;1.33;;;1.00;;
46230;SDS011;31949;51.404;-0.038;2022-08-01T12:13:15;4.28;;;1.00;;
46230;SDS011;31949;51.404;-0.038;2022-08-01T12:15:44;2.17;;;0.90;;
46230;SDS011;31949;51.404;-0.038;2022-08-01T12:18:12;3.38;;;1.00;;
46230;SDS011;31949;51.404;-0.038;2022-08-01T12:20:41;1.10;;;0.68;;
46230;SDS011;31949;51.404;-0.038;2022-08-01T12:23:22;2.65;;;1.50;;
46230;SDS011;31949;51.404;-0.038;2022-08-01T12:25:50;2.30;;;1.13;;
46230;SDS011;31949;51.404;-0.038;2022-08-01T12:28:18;2.55;;;1.00;;
46230;SDS011;31949;51.404;-0.038;2022-08-01T12:30:46;2.75;;;1.02;;
46230;SDS011;31949;51.404;-0.038;2022-08-01T12:33:17;0.80;;;0.80;;
46230;SDS011;31949;51.404;-0.038;2022-08-01T12:35:45;1.20;;;0.90;;
46230;SDS011;31949;51.404;-0.038;2022-08-01T12:38:14;3.35;;;1.10;;
46230;SDS011;31949;51.404;-0.038;2022-08-01T12:40:43;1.95;;;1.55;;
46230;SDS011;31949;51.404;-0.038;2022-08-01T12:43:19;3.25;;;1.02;;
46230;SDS011;31949;51.404;-0.038;2022-08-01T12:45:55;2.05;;;1.20;;
46230;SDS011;31949;51.404;-0.038;2022-08-01T12:48:24;0.95;;;0.95;;
46230;SDS011;31949;51.404;-0.038;2022-08-01T12:50:52;2.10;;;1.10;;
46230;SDS011;31949;51.404;-0.038;2022-08-01T12:53:20;1.08;;;1.00;;
46230;SDS011;31949;51.404;-0.038;2022-08-01T12:55:49;1.15;;;1.05;;
46230;SDS011;31949;51.404;-0.038;2022-08-01T12:58:24;1.75;;;1.08;;
46230;SDS011;31949;51.404;-0.038;2022-08-01T13:01:04;2.38;;;1.17;;
46230;SDS011;31949;51.404;-0.038;2022-08-01T13:03:34;2.58;;;1.13;;
46230;SDS011;31949;51.404;-0.038;2022-08-01T13:06:05;2.65;;;1.38;;
46230;SDS011;31949;51.404;-0.038;2022-08-01T13:08:41;1.08;;;0.90;;
46230;SDS011;31949;51.404;-0.038;2022-08-01T13:11:10;2.45;;;1.05;;
46230;SDS011;31949;51.404;-0.038;2022-08-01T13:13:50;1.20;;;1.10;;
46230;SDS011;31949;51.404;-0.038;2022-08-01T13:16:22;2.28;;;1.05;;
46230;SDS011;31949;51.404;-0.038;2022-08-01T13:19:04;1.45;;;1.33;;
46230;SDS011;31949;51.404;-0.038;2022-08-01T13:21:32;2.40;;;1.23;;
46230;SDS011;31949;51.404;-0.038;2022-08-01T13:24:26;1.55;;;1.15;;
46230;SDS011;31949;51.404;-0.038;2022-08-01T13:26:56;1.67;;;1.50;;
46230;SDS011;31949;51.404;-0.038;2022-08-01T13:32:16;2.00;;;1.10;;
46230;SDS011;31949;51.404;-0.038;2022-08-01T13:35:06;1.15;;;1.05;;
46230;SDS011;31949;51.404;-0.038;2022-08-01T13:37:38;3.97;;;1.40;;
46230;SDS011;31949;51.404;-0.038;2022-08-01T13:40:07;1.60;;;1.20;;
46230;SDS011;31949;51.404;-0.038;2022-08-01T13:42:36;2.05;;;1.20;;
46230;SDS011;31949;51.404;-0.038;2022-08-01T13:45:04;1.92;;;1.13;;
46230;SDS011;31949;51.404;-0.038;2022-08-01T13:47:41;3.45;;;1.20;;
46230;SDS011;31949;51.404;-0.038;2022-08-01T13:50:28;1.77;;;1.55;;
46230;SDS011;31949;51.404;-0.038;2022-08-01T13:52:56;1.20;;;1.10;;
46230;SDS011;31949;51.404;-0.038;2022-08-01T13:55:23;1.25;;;1.15;;
46230;SDS011;31949;51.404;-0.038;2022-08-01T13:57:50;1.38;;;1.20;;
46230;SDS011;31949;51.404;-0.038;2022-08-01T14:00:18;2.70;;;1.60;;
46230;SDS011;31949;51.404;-0.038;2022-08-01T14:02:45;1.23;;;1.00;;
46230;SDS011;31949;51.404;-0.038;2022-08-01T14:05:12;1.48;;;1.02;;
46230;SDS011;31949;51.404;-0.038;2022-08-01T14:07:40;1.15;;;1.05;;
46230;SDS011;31949;51.404;-0.038;2022-08-01T14:10:07;1.17;;;1.10;;
46230;SDS011;31949;51.404;-0.038;2022-08-01T14:12:48;1.35;;;1.00;;
46230;SDS011;31949;51.404;-0.038;2022-08-01T14:15:16;1.85;;;1.02;;
46230;SDS011;31949;51.404;-0.038;2022-08-01T14:18:04;1.83;;;1.05;;
46230;SDS011;31949;51.404;-0.038;2022-08-01T14:20:36;1.38;;;0.85;;
46230;SDS011;31949;51.404;-0.038;2022-08-01T14:23:05;1.90;;;1.40;;
46230;SDS011;31949;51.404;-0.038;2022-08-01T14:25:37;0.88;;;0.75;;
46230;SDS011;31949;51.404;-0.038;2022-08-01T14:28:26;1.63;;;1.08;;
46230;SDS011;31949;51.404;-0.038;2022-08-01T14:30:55;1.42;;;1.33;;
46230;SDS011;31949;51.404;-0.038;2022-08-01T14:33:24;3.20;;;1.30;;
46230;SDS011;31949;51.404;-0.038;2022-08-01T14:35:53;1.60;;;0.85;;
46230;SDS011;31949;51.404;-0.038;2022-08-01T14:38:40;1.05;;;0.93;;
46230;SDS011;31949;51.404;-0.038;2022-08-01T14:41:12;1.10;;;0.77;;
46230;SDS011;31949;51.404;-0.038;2022-08-01T14:43:40;2.65;;;1.48;;
46230;SDS011;31949;51.404;-0.038;2022-08-01T14:46:08;1.65;;;1.00;;
46230;SDS011;31949;51.404;-0.038;2022-08-01T14:48:36;3.40;;;1.15;;
46230;SDS011;31949;51.404;-0.038;2022-08-01T14:51:04;1.35;;;1.25;;
46230;SDS011;31949;51.404;-0.038;2022-08-01T14:53:34;1.55;;;1.15;;
46230;SDS011;31949;51.404;-0.038;2022-08-01T14:56:03;0.90;;;0.88;;
46230;SDS011;31949;51.404;-0.038;2022-08-01T14:58:31;1.33;;;1.20;;
46230;SDS011;31949;51.404;-0.038;2022-08-01T15:00:59;1.05;;;0.90;;
46230;SDS011;31949;51.404;-0.038;2022-08-01T15:03:27;1.42;;;1.05;;
46230;SDS011;31949;51.404;-0.038;2022-08-01T15:05:54;0.82;;;0.80;;
46230;SDS011;31949;51.404;-0.038;2022-08-01T15:08:21;1.40;;;1.08;;
46230;SDS011;31949;51.404;-0.038;2022-08-01T15:10:49;1.50;;;0.90;;
46230;SDS011;31949;51.404;-0.038;2022-08-01T15:13:18;2.47;;;1.10;;
46230;SDS011;31949;51.404;-0.038;2022-08-01T15:15:45;1.58;;;1.00;;
46230;SDS011;31949;51.404;-0.038;2022-08-01T15:18:13;2.35;;;0.80;;
46230;SDS011;31949;51.404;-0.038;2022-08-01T15:20:40;2.13;;;1.38;;
46230;SDS011;31949;51.404;-0.038;2022-08-01T15:23:08;2.83;;;0.93;;
46230;SDS011;31949;51.404;-0.038;2022-08-01T15:25:36;2.15;;;1.20;;
46230;SDS011;31949;51.404;-0.038;2022-08-01T15:28:08;2.05;;;1.05;;
46230;SDS011;31949;51.404;-0.038;2022-08-01T15:30:36;2.35;;;1.35;;
46230;SDS011;31949;51.404;-0.038;2022-08-01T15:33:04;3.15;;;0.98;;
46230;SDS011;31949;51.404;-0.038;2022-08-01T15:35:32;1.98;;;1.20;;
46230;SDS011;31949;51.404;-0.038;2022-08-01T15:37:59;1.30;;;1.20;;
46230;SDS011;31949;51.404;-0.038;2022-08-01T15:40:27;1.40;;;1.30;;
46230;SDS011;31949;51.404;-0.038;2022-08-01T15:42:55;1.75;;;1.20;;
46230;SDS011;31949;51.404;-0.038;2022-08-01T15:45:22;1.65;;;1.35;;
46230;SDS011;31949;51.404;-0.038;2022-08-01T15:48:10;2.05;;;1.38;;
46230;SDS011;31949;51.404;-0.038;2022-08-01T15:50:38;2.67;;;1.48;;
46230;SDS011;31949;51.404;-0.038;2022-08-01T15:53:05;1.80;;;1.17;;